sensor_id;sensor_type;location;lat;lon;timestamp;P1;durP1;ratioP1;P2;durP2;ratioP2
41043;SDS011;51680;49.806;18.774;2023-07-24T00:02:09;7.70;;;2.93;;
41043;SDS011;51680;49.806;18.774;2023-07-24T00:05:11;5.75;;;3.17;;
41043;SDS011;51680;49.806;18.774;2023-07-24T00:08:13;6.07;;;3.00;;
41043;SDS011;51680;49.806;18.774;2023-07-24T00:11:15;9.32;;;2.70;;
41043;SDS011;51680;49.806;18.774;2023-07-24T00:14:18;5.90;;;2.28;;
41043;SDS011;51680;49.806;18.774;2023-07-24T00:17:19;6.43;;;2.90;;
41043;SDS011;51680;49.806;18.774;2023-07-24T00:20:21;4.70;;;2.70;;
41043;SDS011;51680;49.806;18.774;2023-07-24T00:23:24;7.43;;;2.90;;
41043;SDS011;51680;49.806;18.774;2023-07-24T00:26:26;4.70;;;2.75;;
41043;SDS011;51680;49.806;18.774;2023-07-24T00:29:29;7.97;;;3.65;;
41043;SDS011;51680;49.806;18.774;2023-07-24T00:32:32;5.80;;;3.40;;
41043;SDS011;51680;49.806;18.774;2023-07-24T00:35:36;8.05;;;2.67;;
41043;SDS011;51680;49.806;18.774;2023-07-24T00:38:37;6.68;;;3.33;;
41043;SDS011;51680;49.806;18.774;2023-07-24T00:41:39;6.55;;;3.85;;
41043;SDS011;51680;49.806;18.774;2023-07-24T00:44:42;5.22;;;2.80;;
41043;SDS011;51680;49.806;18.774;2023-07-24T00:47:44;6.80;;;2.47;;
41043;SDS011;51680;49.806;18.774;2023-07-24T00:50:46;8.65;;;3.55;;
41043;SDS011;51680;49.806;18.774;2023-07-24T00:53:48;7.45;;;3.50;;
41043;SDS011;51680;49.806;18.774;2023-07-24T00:56:50;9.80;;;3.85;;
41043;SDS011;51680;49.806;18.774;2023-07-24T00:59:53;9.43;;;3.33;;
41043;SDS011;51680;49.806;18.774;2023-07-24T01:02:55;9.23;;;3.65;;
41043;SDS011;51680;49.806;18.774;2023-07-24T01:05:58;10.65;;;3.50;;
41043;SDS011;51680;49.806;18.774;2023-07-24T01:09:02;7.43;;;3.00;;
41043;SDS011;51680;49.806;18.774;2023-07-24T01:12:06;10.82;;;3.70;;
41043;SDS011;51680;49.806;18.774;2023-07-24T01:15:16;5.22;;;3.60;;
41043;SDS011;51680;49.806;18.774;2023-07-24T01:18:24;5.32;;;3.13;;
41043;SDS011;51680;49.806;18.774;2023-07-24T01:21:30;7.60;;;3.40;;
41043;SDS011;51680;49.806;18.774;2023-07-24T01:24:45;8.02;;;3.50;;
41043;SDS011;51680;49.806;18.774;2023-07-24T01:27:55;6.13;;;3.30;;
41043;SDS011;51680;49.806;18.774;2023-07-24T01:30:57;5.38;;;3.55;;
41043;SDS011;51680;49.806;18.774;2023-07-24T01:33:58;7.75;;;3.10;;
41043;SDS011;51680;49.806;18.774;2023-07-24T01:37:00;8.10;;;3.53;;
41043;SDS011;51680;49.806;18.774;2023-07-24T01:40:04;8.85;;;3.72;;
41043;SDS011;51680;49.806;18.774;2023-07-24T01:43:08;7.93;;;3.33;;
41043;SDS011;51680;49.806;18.774;2023-07-24T01:46:10;6.28;;;3.70;;
41043;SDS011;51680;49.806;18.774;2023-07-24T01:49:11;4.93;;;3.05;;
41043;SDS011;51680;49.806;18.774;2023-07-24T01:52:13;7.55;;;3.60;;
41043;SDS011;51680;49.806;18.774;2023-07-24T01:55:15;5.70;;;3.50;;
41043;SDS011;51680;49.806;18.774;2023-07-24T01:58:18;6.20;;;3.72;;
41043;SDS011;51680;49.806;18.774;2023-07-24T02:01:21;6.55;;;3.90;;
41043;SDS011;51680;49.806;18.774;2023-07-24T02:04:23;5.90;;;3.30;;
41043;SDS011;51680;49.806;18.774;2023-07-24T02:07:25;6.43;;;3.50;;
41043;SDS011;51680;49.806;18.774;2023-07-24T02:10:27;7.63;;;3.72;;
41043;SDS011;51680;49.806;18.774;2023-07-24T02:13:30;9.60;;;3.72;;
41043;SDS011;51680;49.806;18.774;2023-07-24T02:16:31;9.23;;;3.90;;
41043;SDS011;51680;49.806;18.774;2023-07-24T02:19:33;6.00;;;3.47;;
41043;SDS011;51680;49.806;18.774;2023-07-24T02:22:35;7.90;;;3.42;;
41043;SDS011;51680;49.806;18.774;2023-07-24T02:25:39;7.90;;;3.42;;
41043;SDS011;51680;49.806;18.774;2023-07-24T02:28:43;8.27;;;3.92;;
41043;SDS011;51680;49.806;18.774;2023-07-24T02:31:44;8.63;;;3.80;;
41043;SDS011;51680;49.806;18.774;2023-07-24T02:34:46;7.68;;;3.70;;
41043;SDS011;51680;49.806;18.774;2023-07-24T02:37:48;5.93;;;3.88;;
41043;SDS011;51680;49.806;18.774;2023-07-24T02:40:49;6.53;;;3.65;;
41043;SDS011;51680;49.806;18.774;2023-07-24T02:43:52;8.25;;;3.80;;
41043;SDS011;51680;49.806;18.774;2023-07-24T02:46:54;7.60;;;4.07;;
41043;SDS011;51680;49.806;18.774;2023-07-24T02:49:56;7.15;;;3.85;;
41043;SDS011;51680;49.806;18.774;2023-07-24T02:52:58;9.20;;;4.00;;
41043;SDS011;51680;49.806;18.774;2023-07-24T02:56:00;6.50;;;3.67;;
41043;SDS011;51680;49.806;18.774;2023-07-24T02:59:04;8.27;;;3.80;;
41043;SDS011;51680;49.806;18.774;2023-07-24T03:02:05;8.87;;;3.20;;
41043;SDS011;51680;49.806;18.774;2023-07-24T03:05:07;6.95;;;3.90;;
41043;SDS011;51680;49.806;18.774;2023-07-24T03:08:09;8.25;;;4.05;;
41043;SDS011;51680;49.806;18.774;2023-07-24T03:11:11;16.92;;;3.53;;
41043;SDS011;51680;49.806;18.774;2023-07-24T03:14:14;8.52;;;4.03;;
41043;SDS011;51680;49.806;18.774;2023-07-24T03:17:16;6.07;;;3.73;;
41043;SDS011;51680;49.806;18.774;2023-07-24T03:20:18;8.80;;;3.80;;
41043;SDS011;51680;49.806;18.774;2023-07-24T03:23:21;7.68;;;4.32;;
41043;SDS011;51680;49.806;18.774;2023-07-24T03:26:22;6.13;;;3.90;;
41043;SDS011;51680;49.806;18.774;2023-07-24T03:29:26;6.65;;;3.90;;
41043;SDS011;51680;49.806;18.774;2023-07-24T03:32:27;7.57;;;4.10;;
41043;SDS011;51680;49.806;18.774;2023-07-24T03:35:30;6.47;;;3.53;;
41043;SDS011;51680;49.806;18.774;2023-07-24T03:38:32;9.50;;;4.00;;
41043;SDS011;51680;49.806;18.774;2023-07-24T03:41:34;9.25;;;4.10;;
41043;SDS011;51680;49.806;18.774;2023-07-24T03:44:37;7.65;;;4.03;;
41043;SDS011;51680;49.806;18.774;2023-07-24T03:47:39;7.70;;;3.97;;
41043;SDS011;51680;49.806;18.774;2023-07-24T03:50:41;11.57;;;4.20;;
41043;SDS011;51680;49.806;18.774;2023-07-24T03:53:43;7.25;;;3.83;;
41043;SDS011;51680;49.806;18.774;2023-07-24T03:56:45;6.47;;;3.80;;
41043;SDS011;51680;49.806;18.774;2023-07-24T03:59:48;11.98;;;3.80;;
41043;SDS011;51680;49.806;18.774;2023-07-24T04:02:50;8.00;;;3.83;;
41043;SDS011;51680;49.806;18.774;2023-07-24T04:05:52;7.90;;;4.15;;
41043;SDS011;51680;49.806;18.774;2023-07-24T04:08:54;5.90;;;3.80;;
41043;SDS011;51680;49.806;18.774;2023-07-24T04:11:55;8.77;;;3.75;;
41043;SDS011;51680;49.806;18.774;2023-07-24T04:14:58;9.25;;;3.83;;
41043;SDS011;51680;49.806;18.774;2023-07-24T04:18:00;8.20;;;3.53;;
41043;SDS011;51680;49.806;18.774;2023-07-24T04:21:02;6.40;;;3.75;;
41043;SDS011;51680;49.806;18.774;2023-07-24T04:24:04;7.28;;;3.92;;
41043;SDS011;51680;49.806;18.774;2023-07-24T04:27:06;7.00;;;4.20;;
41043;SDS011;51680;49.806;18.774;2023-07-24T04:30:09;7.40;;;4.35;;
41043;SDS011;51680;49.806;18.774;2023-07-24T04:36:13;8.00;;;4.13;;
41043;SDS011;51680;49.806;18.774;2023-07-24T04:39:15;7.25;;;3.97;;
41043;SDS011;51680;49.806;18.774;2023-07-24T04:42:16;7.35;;;4.07;;
41043;SDS011;51680;49.806;18.774;2023-07-24T04:45:20;5.97;;;4.05;;
41043;SDS011;51680;49.806;18.774;2023-07-24T04:48:21;10.90;;;4.13;;
41043;SDS011;51680;49.806;18.774;2023-07-24T04:51:23;6.85;;;3.95;;
41043;SDS011;51680;49.806;18.774;2023-07-24T04:54:25;9.05;;;4.43;;
41043;SDS011;51680;49.806;18.774;2023-07-24T04:57:27;8.55;;;4.25;;
41043;SDS011;51680;49.806;18.774;2023-07-24T05:00:30;11.68;;;4.18;;
41043;SDS011;51680;49.806;18.774;2023-07-24T05:03:31;9.10;;;4.87;;
41043;SDS011;51680;49.806;18.774;2023-07-24T05:06:33;13.07;;;4.57;;
41043;SDS011;51680;49.806;18.774;2023-07-24T05:09:37;6.22;;;4.10;;
41043;SDS011;51680;49.806;18.774;2023-07-24T05:12:40;10.02;;;4.35;;
41043;SDS011;51680;49.806;18.774;2023-07-24T05:15:43;6.97;;;3.90;;
41043;SDS011;51680;49.806;18.774;2023-07-24T05:18:45;8.23;;;4.37;;
41043;SDS011;51680;49.806;18.774;2023-07-24T05:21:47;9.50;;;4.38;;
41043;SDS011;51680;49.806;18.774;2023-07-24T05:24:49;8.60;;;4.20;;
41043;SDS011;51680;49.806;18.774;2023-07-24T05:27:50;9.85;;;4.10;;
41043;SDS011;51680;49.806;18.774;2023-07-24T05:30:53;6.95;;;3.88;;
41043;SDS011;51680;49.806;18.774;2023-07-24T05:33:55;8.07;;;4.55;;
41043;SDS011;51680;49.806;18.774;2023-07-24T05:36:57;8.00;;;4.57;;
41043;SDS011;51680;49.806;18.774;2023-07-24T05:39:59;7.13;;;4.60;;
41043;SDS011;51680;49.806;18.774;2023-07-24T05:43:00;9.52;;;4.38;;
41043;SDS011;51680;49.806;18.774;2023-07-24T05:46:05;9.63;;;4.18;;
41043;SDS011;51680;49.806;18.774;2023-07-24T05:49:07;8.98;;;4.25;;
41043;SDS011;51680;49.806;18.774;2023-07-24T05:52:08;8.88;;;4.05;;
41043;SDS011;51680;49.806;18.774;2023-07-24T05:55:10;8.75;;;4.45;;
41043;SDS011;51680;49.806;18.774;2023-07-24T05:58:12;6.65;;;3.97;;
41043;SDS011;51680;49.806;18.774;2023-07-24T06:01:15;6.65;;;3.70;;
41043;SDS011;51680;49.806;18.774;2023-07-24T06:04:17;7.80;;;4.65;;
41043;SDS011;51680;49.806;18.774;2023-07-24T06:07:19;5.38;;;3.85;;
41043;SDS011;51680;49.806;18.774;2023-07-24T06:10:20;7.07;;;4.15;;
41043;SDS011;51680;49.806;18.774;2023-07-24T06:13:22;7.35;;;4.05;;
41043;SDS011;51680;49.806;18.774;2023-07-24T06:16:25;8.68;;;4.07;;
41043;SDS011;51680;49.806;18.774;2023-07-24T06:19:27;9.43;;;4.60;;
41043;SDS011;51680;49.806;18.774;2023-07-24T06:22:29;8.23;;;4.40;;
41043;SDS011;51680;49.806;18.774;2023-07-24T06:25:31;7.18;;;4.43;;
41043;SDS011;51680;49.806;18.774;2023-07-24T06:28:33;9.75;;;4.53;;
41043;SDS011;51680;49.806;18.774;2023-07-24T06:31:36;7.07;;;4.20;;
41043;SDS011;51680;49.806;18.774;2023-07-24T06:34:37;10.48;;;4.40;;
41043;SDS011;51680;49.806;18.774;2023-07-24T06:37:39;8.02;;;4.55;;
41043;SDS011;51680;49.806;18.774;2023-07-24T06:40:41;8.68;;;4.50;;
41043;SDS011;51680;49.806;18.774;2023-07-24T06:43:43;7.57;;;4.63;;
41043;SDS011;51680;49.806;18.774;2023-07-24T06:46:46;10.27;;;4.90;;
41043;SDS011;51680;49.806;18.774;2023-07-24T06:49:48;8.85;;;5.13;;
41043;SDS011;51680;49.806;18.774;2023-07-24T06:52:50;9.93;;;5.30;;
41043;SDS011;51680;49.806;18.774;2023-07-24T06:55:54;9.85;;;4.82;;
41043;SDS011;51680;49.806;18.774;2023-07-24T06:58:55;9.40;;;5.20;;
41043;SDS011;51680;49.806;18.774;2023-07-24T07:01:59;11.02;;;5.10;;
41043;SDS011;51680;49.806;18.774;2023-07-24T07:05:00;9.00;;;4.95;;
41043;SDS011;51680;49.806;18.774;2023-07-24T07:08:03;7.47;;;4.80;;
41043;SDS011;51680;49.806;18.774;2023-07-24T07:15:51;8.07;;;4.97;;
41043;SDS011;51680;49.806;18.774;2023-07-24T07:18:54;9.75;;;5.38;;
41043;SDS011;51680;49.806;18.774;2023-07-24T07:21:56;7.90;;;4.65;;
41043;SDS011;51680;49.806;18.774;2023-07-24T07:24:57;7.95;;;5.25;;
41043;SDS011;51680;49.806;18.774;2023-07-24T07:28:00;8.55;;;4.90;;
41043;SDS011;51680;49.806;18.774;2023-07-24T07:31:04;9.93;;;4.77;;
41043;SDS011;51680;49.806;18.774;2023-07-24T07:34:07;7.25;;;4.90;;
41043;SDS011;51680;49.806;18.774;2023-07-24T07:37:09;10.82;;;5.28;;
41043;SDS011;51680;49.806;18.774;2023-07-24T07:40:11;8.90;;;4.93;;
41043;SDS011;51680;49.806;18.774;2023-07-24T07:43:12;7.95;;;5.10;;
41043;SDS011;51680;49.806;18.774;2023-07-24T07:46:14;9.07;;;5.25;;
41043;SDS011;51680;49.806;18.774;2023-07-24T07:49:17;7.97;;;4.40;;
41043;SDS011;51680;49.806;18.774;2023-07-24T07:52:19;8.18;;;5.13;;
41043;SDS011;51680;49.806;18.774;2023-07-24T07:55:22;9.07;;;4.83;;
41043;SDS011;51680;49.806;18.774;2023-07-24T07:58:23;8.25;;;4.82;;
41043;SDS011;51680;49.806;18.774;2023-07-24T08:01:25;8.02;;;4.90;;
41043;SDS011;51680;49.806;18.774;2023-07-24T08:04:28;8.43;;;5.07;;
41043;SDS011;51680;49.806;18.774;2023-07-24T08:07:30;8.07;;;5.00;;
41043;SDS011;51680;49.806;18.774;2023-07-24T08:10:32;13.98;;;5.25;;
41043;SDS011;51680;49.806;18.774;2023-07-24T08:13:34;7.45;;;4.95;;
41043;SDS011;51680;49.806;18.774;2023-07-24T08:16:36;8.95;;;4.63;;
41043;SDS011;51680;49.806;18.774;2023-07-24T08:19:42;7.82;;;5.22;;
41043;SDS011;51680;49.806;18.774;2023-07-24T08:22:44;7.82;;;5.18;;
41043;SDS011;51680;49.806;18.774;2023-07-24T08:25:53;8.73;;;5.28;;
41043;SDS011;51680;49.806;18.774;2023-07-24T08:28:55;7.85;;;4.95;;
41043;SDS011;51680;49.806;18.774;2023-07-24T08:31:57;9.35;;;5.00;;
41043;SDS011;51680;49.806;18.774;2023-07-24T08:35:00;7.95;;;4.80;;
41043;SDS011;51680;49.806;18.774;2023-07-24T08:38:01;7.15;;;5.13;;
41043;SDS011;51680;49.806;18.774;2023-07-24T08:41:04;8.93;;;4.80;;
41043;SDS011;51680;49.806;18.774;2023-07-24T08:44:07;8.50;;;5.20;;
41043;SDS011;51680;49.806;18.774;2023-07-24T08:47:10;8.30;;;5.37;;
41043;SDS011;51680;49.806;18.774;2023-07-24T08:50:14;7.50;;;5.30;;
41043;SDS011;51680;49.806;18.774;2023-07-24T08:53:17;8.82;;;5.68;;
41043;SDS011;51680;49.806;18.774;2023-07-24T08:56:21;10.18;;;5.28;;
41043;SDS011;51680;49.806;18.774;2023-07-24T08:59:23;10.68;;;5.82;;
41043;SDS011;51680;49.806;18.774;2023-07-24T09:02:24;9.35;;;5.70;;
41043;SDS011;51680;49.806;18.774;2023-07-24T09:05:28;9.32;;;5.60;;
41043;SDS011;51680;49.806;18.774;2023-07-24T09:08:30;10.70;;;5.43;;
41043;SDS011;51680;49.806;18.774;2023-07-24T09:11:32;8.30;;;5.35;;
41043;SDS011;51680;49.806;18.774;2023-07-24T09:14:34;9.95;;;5.75;;
41043;SDS011;51680;49.806;18.774;2023-07-24T09:17:35;10.57;;;6.65;;
41043;SDS011;51680;49.806;18.774;2023-07-24T09:20:39;8.70;;;5.97;;
41043;SDS011;51680;49.806;18.774;2023-07-24T09:23:41;7.88;;;5.43;;
41043;SDS011;51680;49.806;18.774;2023-07-24T09:26:47;8.75;;;6.15;;
41043;SDS011;51680;49.806;18.774;2023-07-24T09:29:50;11.15;;;5.93;;
41043;SDS011;51680;49.806;18.774;2023-07-24T09:32:52;8.05;;;5.50;;
41043;SDS011;51680;49.806;18.774;2023-07-24T09:35:59;9.88;;;5.72;;
41043;SDS011;51680;49.806;18.774;2023-07-24T09:39:01;9.55;;;6.20;;
41043;SDS011;51680;49.806;18.774;2023-07-24T09:42:06;9.15;;;5.88;;
41043;SDS011;51680;49.806;18.774;2023-07-24T09:45:08;10.10;;;6.03;;
41043;SDS011;51680;49.806;18.774;2023-07-24T09:48:11;10.82;;;6.32;;
41043;SDS011;51680;49.806;18.774;2023-07-24T09:51:16;9.68;;;5.97;;
41043;SDS011;51680;49.806;18.774;2023-07-24T09:54:20;13.15;;;5.63;;
41043;SDS011;51680;49.806;18.774;2023-07-24T09:57:27;11.85;;;6.07;;
41043;SDS011;51680;49.806;18.774;2023-07-24T10:00:30;9.10;;;5.80;;
41043;SDS011;51680;49.806;18.774;2023-07-24T10:03:33;8.77;;;6.03;;
41043;SDS011;51680;49.806;18.774;2023-07-24T10:06:37;9.25;;;6.47;;
41043;SDS011;51680;49.806;18.774;2023-07-24T10:09:40;9.25;;;5.95;;
41043;SDS011;51680;49.806;18.774;2023-07-24T10:12:44;8.75;;;5.78;;
41043;SDS011;51680;49.806;18.774;2023-07-24T10:15:46;9.82;;;5.72;;
41043;SDS011;51680;49.806;18.774;2023-07-24T10:18:49;9.40;;;5.70;;
41043;SDS011;51680;49.806;18.774;2023-07-24T10:21:52;8.88;;;5.70;;
41043;SDS011;51680;49.806;18.774;2023-07-24T10:24:54;8.98;;;5.93;;
41043;SDS011;51680;49.806;18.774;2023-07-24T10:31:02;7.97;;;5.68;;
41043;SDS011;51680;49.806;18.774;2023-07-24T10:34:06;10.00;;;5.82;;
41043;SDS011;51680;49.806;18.774;2023-07-24T10:37:10;9.43;;;6.35;;
41043;SDS011;51680;49.806;18.774;2023-07-24T10:40:18;11.77;;;6.03;;
41043;SDS011;51680;49.806;18.774;2023-07-24T10:43:21;10.48;;;6.30;;
41043;SDS011;51680;49.806;18.774;2023-07-24T10:46:23;10.93;;;6.25;;
41043;SDS011;51680;49.806;18.774;2023-07-24T10:49:25;10.35;;;6.35;;
41043;SDS011;51680;49.806;18.774;2023-07-24T10:52:31;9.80;;;6.30;;
41043;SDS011;51680;49.806;18.774;2023-07-24T10:55:33;13.90;;;6.70;;
41043;SDS011;51680;49.806;18.774;2023-07-24T10:58:35;9.55;;;6.38;;
41043;SDS011;51680;49.806;18.774;2023-07-24T11:01:37;9.82;;;6.68;;
41043;SDS011;51680;49.806;18.774;2023-07-24T11:04:39;11.38;;;6.82;;
41043;SDS011;51680;49.806;18.774;2023-07-24T11:07:42;9.15;;;6.45;;
41043;SDS011;51680;49.806;18.774;2023-07-24T11:10:44;12.98;;;6.68;;
41043;SDS011;51680;49.806;18.774;2023-07-24T11:13:47;12.48;;;7.28;;
41043;SDS011;51680;49.806;18.774;2023-07-24T11:16:49;11.68;;;6.53;;
41043;SDS011;51680;49.806;18.774;2023-07-24T11:19:51;9.45;;;6.70;;
41043;SDS011;51680;49.806;18.774;2023-07-24T11:22:57;11.27;;;7.00;;
41043;SDS011;51680;49.806;18.774;2023-07-24T11:25:59;10.25;;;6.68;;
41043;SDS011;51680;49.806;18.774;2023-07-24T11:29:01;13.10;;;6.90;;
41043;SDS011;51680;49.806;18.774;2023-07-24T11:32:12;9.38;;;6.53;;
41043;SDS011;51680;49.806;18.774;2023-07-24T11:35:13;10.60;;;6.38;;
41043;SDS011;51680;49.806;18.774;2023-07-24T11:38:17;10.38;;;6.82;;
41043;SDS011;51680;49.806;18.774;2023-07-24T11:41:19;8.95;;;5.72;;
41043;SDS011;51680;49.806;18.774;2023-07-24T11:44:24;10.57;;;6.78;;
41043;SDS011;51680;49.806;18.774;2023-07-24T11:47:26;10.20;;;6.47;;
41043;SDS011;51680;49.806;18.774;2023-07-24T11:50:29;10.15;;;6.68;;
41043;SDS011;51680;49.806;18.774;2023-07-24T11:53:32;11.10;;;6.20;;
41043;SDS011;51680;49.806;18.774;2023-07-24T11:56:34;11.32;;;6.43;;
41043;SDS011;51680;49.806;18.774;2023-07-24T11:59:37;8.68;;;6.03;;
41043;SDS011;51680;49.806;18.774;2023-07-24T12:05:41;10.50;;;6.78;;
41043;SDS011;51680;49.806;18.774;2023-07-24T12:08:45;10.40;;;7.03;;
41043;SDS011;51680;49.806;18.774;2023-07-24T12:14:49;11.20;;;6.75;;
41043;SDS011;51680;49.806;18.774;2023-07-24T12:17:51;11.90;;;6.78;;
41043;SDS011;51680;49.806;18.774;2023-07-24T12:20:52;10.20;;;6.82;;
41043;SDS011;51680;49.806;18.774;2023-07-24T12:23:55;11.50;;;7.05;;
41043;SDS011;51680;49.806;18.774;2023-07-24T12:26:57;10.63;;;6.75;;
41043;SDS011;51680;49.806;18.774;2023-07-24T12:29:59;11.38;;;7.03;;
41043;SDS011;51680;49.806;18.774;2023-07-24T12:33:01;12.38;;;7.18;;
41043;SDS011;51680;49.806;18.774;2023-07-24T12:36:03;12.15;;;7.35;;
41043;SDS011;51680;49.806;18.774;2023-07-24T12:39:07;11.27;;;6.65;;
41043;SDS011;51680;49.806;18.774;2023-07-24T12:42:10;7.47;;;4.80;;
41043;SDS011;51680;49.806;18.774;2023-07-24T12:45:12;12.60;;;6.78;;
41043;SDS011;51680;49.806;18.774;2023-07-24T12:48:14;9.75;;;6.70;;
41043;SDS011;51680;49.806;18.774;2023-07-24T12:51:17;9.43;;;6.40;;
41043;SDS011;51680;49.806;18.774;2023-07-24T12:54:20;12.30;;;7.22;;
41043;SDS011;51680;49.806;18.774;2023-07-24T12:57:23;11.45;;;7.10;;
41043;SDS011;51680;49.806;18.774;2023-07-24T13:00:26;12.40;;;7.10;;
41043;SDS011;51680;49.806;18.774;2023-07-24T13:03:28;9.20;;;6.60;;
41043;SDS011;51680;49.806;18.774;2023-07-24T13:06:29;10.10;;;7.28;;
41043;SDS011;51680;49.806;18.774;2023-07-24T13:09:32;11.48;;;6.60;;
41043;SDS011;51680;49.806;18.774;2023-07-24T13:12:34;11.20;;;6.63;;
41043;SDS011;51680;49.806;18.774;2023-07-24T13:15:36;15.98;;;7.30;;
41043;SDS011;51680;49.806;18.774;2023-07-24T13:18:38;10.90;;;6.88;;
41043;SDS011;51680;49.806;18.774;2023-07-24T13:21:40;12.60;;;6.47;;
41043;SDS011;51680;49.806;18.774;2023-07-24T13:24:44;10.93;;;7.10;;
41043;SDS011;51680;49.806;18.774;2023-07-24T13:27:46;9.15;;;6.15;;
41043;SDS011;51680;49.806;18.774;2023-07-24T13:30:48;10.07;;;6.75;;
41043;SDS011;51680;49.806;18.774;2023-07-24T13:33:49;12.82;;;7.22;;
41043;SDS011;51680;49.806;18.774;2023-07-24T13:36:51;12.48;;;6.97;;
41043;SDS011;51680;49.806;18.774;2023-07-24T13:39:54;11.60;;;6.53;;
41043;SDS011;51680;49.806;18.774;2023-07-24T13:42:56;11.98;;;6.93;;
41043;SDS011;51680;49.806;18.774;2023-07-24T13:45:57;13.93;;;6.97;;
41043;SDS011;51680;49.806;18.774;2023-07-24T13:49:00;10.85;;;6.95;;
41043;SDS011;51680;49.806;18.774;2023-07-24T13:52:03;12.05;;;6.97;;
41043;SDS011;51680;49.806;18.774;2023-07-24T13:55:07;9.63;;;6.53;;
41043;SDS011;51680;49.806;18.774;2023-07-24T14:01:11;11.48;;;7.35;;
41043;SDS011;51680;49.806;18.774;2023-07-24T14:04:12;9.73;;;7.03;;
41043;SDS011;51680;49.806;18.774;2023-07-24T14:07:14;14.73;;;7.22;;
41043;SDS011;51680;49.806;18.774;2023-07-24T14:10:17;12.30;;;7.28;;
41043;SDS011;51680;49.806;18.774;2023-07-24T14:13:19;11.75;;;7.53;;
41043;SDS011;51680;49.806;18.774;2023-07-24T14:16:21;14.13;;;7.82;;
41043;SDS011;51680;49.806;18.774;2023-07-24T14:19:22;11.30;;;7.53;;
41043;SDS011;51680;49.806;18.774;2023-07-24T14:22:24;12.80;;;8.25;;
41043;SDS011;51680;49.806;18.774;2023-07-24T14:25:27;10.60;;;7.10;;
41043;SDS011;51680;49.806;18.774;2023-07-24T14:28:29;15.32;;;8.20;;
41043;SDS011;51680;49.806;18.774;2023-07-24T14:31:31;12.88;;;7.53;;
41043;SDS011;51680;49.806;18.774;2023-07-24T14:34:32;13.48;;;7.65;;
41043;SDS011;51680;49.806;18.774;2023-07-24T14:37:34;13.38;;;7.38;;
41043;SDS011;51680;49.806;18.774;2023-07-24T14:40:37;11.82;;;7.97;;
41043;SDS011;51680;49.806;18.774;2023-07-24T14:46:41;11.95;;;8.10;;
41043;SDS011;51680;49.806;18.774;2023-07-24T14:49:43;11.35;;;7.70;;
41043;SDS011;51680;49.806;18.774;2023-07-24T14:52:44;11.30;;;7.22;;
41043;SDS011;51680;49.806;18.774;2023-07-24T14:55:47;11.05;;;7.45;;
41043;SDS011;51680;49.806;18.774;2023-07-24T14:58:49;12.13;;;7.55;;
41043;SDS011;51680;49.806;18.774;2023-07-24T15:01:51;12.32;;;7.65;;
41043;SDS011;51680;49.806;18.774;2023-07-24T15:04:53;12.77;;;8.23;;
41043;SDS011;51680;49.806;18.774;2023-07-24T15:07:54;12.10;;;8.10;;
41043;SDS011;51680;49.806;18.774;2023-07-24T15:10:57;11.32;;;7.63;;
41043;SDS011;51680;49.806;18.774;2023-07-24T15:13:59;13.23;;;7.57;;
41043;SDS011;51680;49.806;18.774;2023-07-24T15:17:01;13.13;;;7.30;;
41043;SDS011;51680;49.806;18.774;2023-07-24T15:20:04;10.43;;;7.45;;
41043;SDS011;51680;49.806;18.774;2023-07-24T15:23:08;11.25;;;7.80;;
41043;SDS011;51680;49.806;18.774;2023-07-24T15:26:12;11.15;;;7.55;;
41043;SDS011;51680;49.806;18.774;2023-07-24T15:29:14;11.93;;;7.85;;
41043;SDS011;51680;49.806;18.774;2023-07-24T15:32:16;12.13;;;7.65;;
41043;SDS011;51680;49.806;18.774;2023-07-24T15:35:18;12.25;;;7.65;;
41043;SDS011;51680;49.806;18.774;2023-07-24T15:38:20;17.85;;;7.90;;
41043;SDS011;51680;49.806;18.774;2023-07-24T15:41:23;11.43;;;7.78;;
41043;SDS011;51680;49.806;18.774;2023-07-24T15:44:25;12.73;;;7.55;;
41043;SDS011;51680;49.806;18.774;2023-07-24T15:47:26;14.88;;;6.72;;
41043;SDS011;51680;49.806;18.774;2023-07-24T15:50:28;16.98;;;6.57;;
41043;SDS011;51680;49.806;18.774;2023-07-24T15:53:30;13.73;;;6.32;;
41043;SDS011;51680;49.806;18.774;2023-07-24T15:56:33;13.00;;;6.30;;
41043;SDS011;51680;49.806;18.774;2023-07-24T15:59:35;20.02;;;6.18;;
41043;SDS011;51680;49.806;18.774;2023-07-24T16:02:37;11.57;;;5.88;;
41043;SDS011;51680;49.806;18.774;2023-07-24T16:05:39;13.23;;;5.88;;
41043;SDS011;51680;49.806;18.774;2023-07-24T16:08:40;15.68;;;6.60;;
41043;SDS011;51680;49.806;18.774;2023-07-24T16:11:44;16.80;;;6.65;;
41043;SDS011;51680;49.806;18.774;2023-07-24T16:14:47;17.23;;;6.95;;
41043;SDS011;51680;49.806;18.774;2023-07-24T16:17:49;19.02;;;7.15;;
41043;SDS011;51680;49.806;18.774;2023-07-24T16:20:50;16.00;;;6.75;;
41043;SDS011;51680;49.806;18.774;2023-07-24T16:23:52;14.77;;;7.60;;
41043;SDS011;51680;49.806;18.774;2023-07-24T16:26:55;18.23;;;8.02;;
41043;SDS011;51680;49.806;18.774;2023-07-24T16:29:57;17.20;;;8.17;;
41043;SDS011;51680;49.806;18.774;2023-07-24T16:32:59;15.35;;;8.10;;
41043;SDS011;51680;49.806;18.774;2023-07-24T16:36:00;14.63;;;8.10;;
41043;SDS011;51680;49.806;18.774;2023-07-24T16:39:05;17.05;;;8.38;;
41043;SDS011;51680;49.806;18.774;2023-07-24T16:42:08;17.95;;;8.35;;
41043;SDS011;51680;49.806;18.774;2023-07-24T16:45:10;13.77;;;7.77;;
41043;SDS011;51680;49.806;18.774;2023-07-24T16:48:12;18.25;;;8.52;;
41043;SDS011;51680;49.806;18.774;2023-07-24T16:51:13;19.13;;;8.18;;
41043;SDS011;51680;49.806;18.774;2023-07-24T16:54:15;14.93;;;8.45;;
41043;SDS011;51680;49.806;18.774;2023-07-24T16:57:18;18.35;;;8.65;;
41043;SDS011;51680;49.806;18.774;2023-07-24T17:00:20;22.77;;;9.47;;
41043;SDS011;51680;49.806;18.774;2023-07-24T17:03:22;20.92;;;9.23;;
41043;SDS011;51680;49.806;18.774;2023-07-24T17:06:24;17.30;;;8.98;;
41043;SDS011;51680;49.806;18.774;2023-07-24T17:09:26;15.98;;;8.82;;
41043;SDS011;51680;49.806;18.774;2023-07-24T17:12:29;18.30;;;9.18;;
41043;SDS011;51680;49.806;18.774;2023-07-24T17:15:31;17.60;;;8.63;;
41043;SDS011;51680;49.806;18.774;2023-07-24T17:18:32;21.15;;;7.43;;
41043;SDS011;51680;49.806;18.774;2023-07-24T17:21:34;16.00;;;7.07;;
41043;SDS011;51680;49.806;18.774;2023-07-24T17:24:36;11.32;;;5.88;;
41043;SDS011;51680;49.806;18.774;2023-07-24T17:27:39;11.50;;;5.38;;
41043;SDS011;51680;49.806;18.774;2023-07-24T17:30:41;10.10;;;4.87;;
41043;SDS011;51680;49.806;18.774;2023-07-24T17:33:43;9.27;;;4.65;;
41043;SDS011;51680;49.806;18.774;2023-07-24T17:36:44;9.05;;;4.18;;
41043;SDS011;51680;49.806;18.774;2023-07-24T17:39:46;10.85;;;4.32;;
41043;SDS011;51680;49.806;18.774;2023-07-24T17:42:49;8.02;;;3.90;;
41043;SDS011;51680;49.806;18.774;2023-07-24T17:45:51;7.57;;;4.10;;
41043;SDS011;51680;49.806;18.774;2023-07-24T17:48:53;8.38;;;3.70;;
41043;SDS011;51680;49.806;18.774;2023-07-24T17:51:55;7.50;;;3.38;;
41043;SDS011;51680;49.806;18.774;2023-07-24T17:54:57;7.88;;;3.30;;
41043;SDS011;51680;49.806;18.774;2023-07-24T17:58:00;9.82;;;4.40;;
41043;SDS011;51680;49.806;18.774;2023-07-24T18:01:01;8.80;;;3.50;;
41043;SDS011;51680;49.806;18.774;2023-07-24T18:04:03;11.75;;;3.83;;
41043;SDS011;51680;49.806;18.774;2023-07-24T18:07:08;7.40;;;3.70;;
41043;SDS011;51680;49.806;18.774;2023-07-24T18:10:09;9.10;;;3.70;;
41043;SDS011;51680;49.806;18.774;2023-07-24T18:13:13;8.13;;;3.70;;
41043;SDS011;51680;49.806;18.774;2023-07-24T18:16:14;13.63;;;4.13;;
41043;SDS011;51680;49.806;18.774;2023-07-24T18:19:17;8.27;;;3.83;;